CYPR

Prince Rupert Airport

Prince Rupert, , Canada
METAR CYPR 192000Z AUTO 23004KT 200V270 9SM CLR 17/14 A2998 RMK SLP155 DENSITY ALT 300FT
Observed Flight Rules
Jun-19 @ 20:00 UTC (21 minutes ago) Visual Flight Rules
Wind Visibility Clouds
230° at 4 knots 9 miles
  • Clear skies
Temperatures Readings
Current 17°C / 63°F
Dewpoint 14°C / 57°F
Humidity 83%
Altimeter 29.98" Hg
Pressure 1015.5 hPa
Elevation 34
METAR CYPR 192000Z AUTO 23004KT 200V270 9SM CLR 17/14 A2998 RMK SLP155 DENSITY ALT 300FT
Observed Flight Rules
Jun-19 @ 20:00 UTC
(21 minutes ago)
VFR
Wind Visibility
230° at 4 knots 9 miles
Clouds
  • Clear skies
Temperature Dewpoint
17°C / 63°F 14°C / 57°F
Humidity Altimeter Pressure
83% 29.98" Hg 1015.5 hPa